Time;durP1;ratioP1;P1;durP2;ratioP2;P2;SDS_P1;SDS_P2;PMS_P1;PMS_P2;Temp;Humidity;BMP_temperature;BMP_pressure;BME280_temperature;BME280_humidity;BME280_pressure;Samples;Min_cycle;Max_cycle;Signal;HPM_P1;HPM_P2
2023/08/29 04:47:11;;;;;;;;;;;;;;;16.55;59.83;96345.16;4254037;27;10195;-61
2023/08/29 04:49:14;;;;;;;;;;;;;;;16.85;58.67;96342.97;4262526;27;6909;-60
2023/08/29 04:51:17;;;;;;;;;;;;;;;17.07;58.48;96339.56;4265768;27;5632;-61
2023/08/29 04:53:21;;;;;;;;;;;;;;;17.29;58.08;96345.75;4259009;27;5645;-60
2023/08/29 04:55:25;;;;;;;;;;;;;;;17.45;57.68;96347.59;4269131;27;5862;-59
2023/08/29 04:57:28;;;;;;;;;;;;;;;17.58;57.50;96345.63;4260286;27;5632;-59
2023/08/29 04:59:31;;;;;;;;;;;;;;;17.70;56.89;96343.66;4268678;27;5833;-60
2023/08/29 05:01:34;;;;;;;;;;;;;;;17.77;56.42;96346.13;4260538;27;5747;-59
2023/08/29 05:03:38;;;;;;;;;;;;;;;17.82;56.23;96344.34;4269358;27;7286;-59
2023/08/29 05:05:45;;;;;;;;;;;;;;;17.87;55.65;96344.38;4272183;27;5731;-59
2023/08/29 05:07:48;;;;;;;;;;;;;;;17.91;55.24;96348.19;4268840;27;5727;-59
2023/08/29 05:09:52;;;;;;;;;;;;;;;17.93;55.31;96346.06;4266506;27;5677;-59
2023/08/29 05:11:55;;;;;;;;;;;;;;;17.98;55.06;96343.44;4259284;27;5708;-59
2023/08/29 05:13:58;;;;;;;;;;;;;;;17.96;53.79;96342.91;4264112;27;5811;-59
2023/08/29 05:16:01;;;;;;;;;;;;;;;17.87;53.04;96339.03;4265667;27;6315;-60
2023/08/29 05:18:04;;;;;;;;;;;;;;;17.72;53.11;96338.88;4265778;27;5990;-60
2023/08/29 05:20:11;;;;;;;;;;;;;;;17.66;53.24;96343.31;4263282;27;5639;-60
2023/08/29 05:22:15;;;;;;;;;;;;;;;17.60;52.85;96336.28;4265364;27;5730;-60
2023/08/29 05:24:18;;;;;;;;;;;;;;;17.59;52.87;96337.34;4266544;27;5824;-59
2023/08/29 05:26:21;;;;;;;;;;;;;;;17.60;53.03;96338.97;4272203;27;5913;-59
2023/08/29 05:28:24;;;;;;;;;;;;;;;17.63;53.31;96337.66;4276295;27;5623;-60
2023/08/29 05:30:27;;;;;;;;;;;;;;;17.70;53.30;96343.66;4269146;27;5713;-60
2023/08/29 05:32:30;;;;;;;;;;;;;;;17.70;52.78;96344.47;4258340;27;5836;-60
2023/08/29 05:34:33;;;;;;;;;;;;;;;17.64;52.97;96341.94;4250353;27;5114;-60
2023/08/29 05:36:37;;;;;;;;;;;;;;;17.67;53.25;96342.28;4253660;27;5914;-59
2023/08/29 05:38:40;;;;;;;;;;;;;;;17.71;53.22;96346.09;4262623;27;5624;-59
2023/08/29 05:40:43;;;;;;;;;;;;;;;17.73;52.64;96348.50;4255450;27;5788;-59
2023/08/29 05:42:46;;;;;;;;;;;;;;;17.70;52.55;96354.34;4253397;27;7314;-59
2023/08/29 05:44:49;;;;;;;;;;;;;;;17.64;52.33;96361.47;4260937;27;7794;-59
2023/08/29 05:46:52;;;;;;;;;;;;;;;17.58;52.59;96359.00;4253657;27;5862;-59
2023/08/29 05:48:54;;;;;;;;;;;;;;;17.60;52.54;96359.53;4248729;27;5620;-59
2023/08/29 05:50:57;;;;;;;;;;;;;;;17.56;52.33;96361.09;4256182;27;5606;-60
2023/08/29 05:53:02;;;;;;;;;;;;;;;17.59;52.65;96355.25;4262453;27;5624;-59
2023/08/29 05:55:06;;;;;;;;;;;;;;;17.59;52.07;96356.06;4253385;27;5636;-60
2023/08/29 05:57:09;;;;;;;;;;;;;;;17.52;52.07;96349.28;4245312;27;5633;-60
2023/08/29 05:59:12;;;;;;;;;;;;;;;17.42;52.30;96352.63;4260792;27;6334;-60
2023/08/29 06:01:15;;;;;;;;;;;;;;;17.45;52.16;96352.94;4261660;27;5852;-59
2023/08/29 06:03:18;;;;;;;;;;;;;;;17.43;52.42;96360.38;4258247;27;5693;-59
2023/08/29 06:05:26;;;;;;;;;;;;;;;17.46;52.37;96361.78;4258835;27;5678;-60
2023/08/29 06:07:29;;;;;;;;;;;;;;;17.46;51.91;96361.78;4253469;27;5603;-60
2023/08/29 06:09:34;;;;;;;;;;;;;;;17.34;52.07;96361.06;4252992;27;5624;-61
2023/08/29 06:11:37;;;;;;;;;;;;;;;17.31;52.43;96362.34;4256093;27;5662;-61
2023/08/29 06:13:40;;;;;;;;;;;;;;;17.28;52.60;96368.19;4253783;27;6313;-61
2023/08/29 06:15:43;;;;;;;;;;;;;;;17.28;52.64;96364.72;4252882;27;5826;-60
2023/08/29 06:17:46;;;;;;;;;;;;;;;17.31;52.70;96367.69;4252442;27;5744;-61
2023/08/29 06:19:49;;;;;;;;;;;;;;;17.35;52.92;96360.00;4258123;27;5717;-61
2023/08/29 06:21:52;;;;;;;;;;;;;;;17.46;52.98;96361.78;4254466;27;5621;-61
2023/08/29 06:23:55;;;;;;;;;;;;;;;17.53;52.83;96364.25;4252701;27;5673;-60
2023/08/29 06:26:02;;;;;;;;;;;;;;;17.53;52.79;96361.56;4260187;27;6306;-61
2023/08/29 06:28:06;;;;;;;;;;;;;;;17.57;52.78;96360.03;4259945;27;5632;-60
2023/08/29 06:30:13;;;;;;;;;;;;;;;17.60;52.51;96365.69;4251233;27;5636;-60
2023/08/29 06:32:16;;;;;;;;;;;;;;;17.56;52.78;96366.44;4252594;27;5606;-60
2023/08/29 06:34:19;;;;;;;;;;;;;;;17.54;52.83;96366.66;4260841;27;5628;-60
2023/08/29 06:36:22;;;;;;;;;;;;;;;17.55;52.93;96362.94;4248148;27;5641;-60
2023/08/29 06:38:25;;;;;;;;;;;;;;;17.63;52.73;96369.72;4251694;27;5645;-60
2023/08/29 06:40:28;;;;;;;;;;;;;;;17.68;53.01;96373.28;4259427;27;5779;-60
2023/08/29 06:42:33;;;;;;;;;;;;;;;17.73;53.00;96370.69;4250966;27;6481;-61
2023/08/29 06:44:35;;;;;;;;;;;;;;;17.76;52.92;96374.72;4256360;27;5724;-61
2023/08/29 06:46:38;;;;;;;;;;;;;;;17.79;52.85;96379.59;4255944;27;5749;-60
2023/08/29 06:48:42;;;;;;;;;;;;;;;17.85;52.90;96372.44;4260562;27;5682;-61
2023/08/29 06:50:45;;;;;;;;;;;;;;;17.93;52.91;96369.34;4260615;27;5701;-60
2023/08/29 06:52:48;;;;;;;;;;;;;;;17.94;52.54;96376.31;4259789;27;7668;-60
2023/08/29 06:54:51;;;;;;;;;;;;;;;17.90;52.68;96373.31;4260247;27;5731;-60
2023/08/29 06:56:55;;;;;;;;;;;;;;;17.92;52.81;96379.22;4260058;27;5813;-60
2023/08/29 06:59:00;;;;;;;;;;;;;;;18.00;52.67;96375.28;4257894;27;5607;-61
2023/08/29 07:01:02;;;;;;;;;;;;;;;18.09;52.89;96381.00;4252416;27;5641;-61
2023/08/29 07:03:06;;;;;;;;;;;;;;;18.11;52.82;96381.56;4251688;27;5823;-61
2023/08/29 07:05:09;;;;;;;;;;;;;;;18.13;52.86;96380.28;4243797;27;5652;-61
2023/08/29 07:07:13;;;;;;;;;;;;;;;18.16;52.63;96373.59;4258092;27;6294;-61
2023/08/29 07:09:17;;;;;;;;;;;;;;;18.20;52.68;96380.06;4259982;27;5607;-59
2023/08/29 07:11:20;;;;;;;;;;;;;;;18.22;52.30;96381.41;4259852;27;5621;-60
2023/08/29 07:13:24;;;;;;;;;;;;;;;18.18;52.50;96376.84;4258113;27;6358;-59
2023/08/29 07:15:28;;;;;;;;;;;;;;;18.21;52.65;96377.13;4254628;27;5830;-61
2023/08/29 07:17:31;;;;;;;;;;;;;;;18.26;52.30;96381.75;4259779;27;5963;-61
2023/08/29 07:19:34;;;;;;;;;;;;;;;18.29;52.50;96389.25;4255719;27;5751;-60
2023/08/29 07:21:37;;;;;;;;;;;;;;;18.32;52.46;96388.75;4251293;27;5643;-59
2023/08/29 07:23:41;;;;;;;;;;;;;;;18.29;52.07;96390.06;4251397;27;7648;-60
2023/08/29 07:25:46;;;;;;;;;;;;;;;18.28;52.59;96393.00;4256744;27;6395;-60
2023/08/29 07:27:51;;;;;;;;;;;;;;;18.33;52.57;96385.00;4262599;27;5607;-59
2023/08/29 07:29:54;;;;;;;;;;;;;;;18.40;52.52;96390.97;4251405;27;5627;-59
2023/08/29 07:31:59;;;;;;;;;;;;;;;18.47;52.35;96396.16;4257326;27;5829;-60
2023/08/29 07:34:02;;;;;;;;;;;;;;;18.41;52.12;96394.47;4247718;27;5741;-60
2023/08/29 07:36:05;;;;;;;;;;;;;;;18.26;52.24;96393.25;4264331;27;5595;-59
2023/08/29 07:38:09;;;;;;;;;;;;;;;18.28;52.58;96396.47;4243248;27;5694;-60
2023/08/29 07:40:14;;;;;;;;;;;;;;;18.29;52.45;96391.94;4260039;27;6209;-60
2023/08/29 07:42:17;;;;;;;;;;;;;;;18.29;52.54;96400.78;4268676;27;6288;-60
2023/08/29 07:44:20;;;;;;;;;;;;;;;18.33;52.44;96395.72;4259811;27;5615;-60
2023/08/29 07:46:23;;;;;;;;;;;;;;;18.39;52.54;96389.38;4239236;27;5649;-60
2023/08/29 07:48:28;;;;;;;;;;;;;;;18.45;52.12;96392.91;4250929;27;6008;-60
2023/08/29 07:50:30;;;;;;;;;;;;;;;18.48;52.16;96403.94;4247904;27;5582;-60
2023/08/29 07:52:35;;;;;;;;;;;;;;;18.45;51.61;96401.72;4258753;27;5603;-60
2023/08/29 07:54:39;;;;;;;;;;;;;;;18.37;51.67;96394.19;4250406;27;5698;-59
2023/08/29 07:56:42;;;;;;;;;;;;;;;18.38;51.56;96409.16;4244527;27;5846;-60
2023/08/29 07:58:45;;;;;;;;;;;;;;;18.33;51.49;96403.75;4258615;27;6311;-60
2023/08/29 08:00:47;;;;;;;;;;;;;;;18.32;51.44;96400.25;4253869;27;5718;-59
2023/08/29 08:02:50;;;;;;;;;;;;;;;18.26;51.29;96400.47;4257124;27;5624;-61
2023/08/29 08:04:55;;;;;;;;;;;;;;;18.16;51.47;96401.16;4257441;27;5599;-61
2023/08/29 08:06:58;;;;;;;;;;;;;;;18.15;51.71;96398.75;4267594;27;5625;-60
2023/08/29 08:09:02;;;;;;;;;;;;;;;18.13;51.65;96404.34;4249425;27;5731;-60
2023/08/29 08:11:05;;;;;;;;;;;;;;;18.18;51.69;96404.41;4260866;27;5742;-60
2023/08/29 08:13:08;;;;;;;;;;;;;;;18.23;51.80;96406.31;4250878;27;5595;-60
2023/08/29 08:15:11;;;;;;;;;;;;;;;18.28;51.00;96411.72;4258187;27;5611;-61
2023/08/29 08:17:14;;;;;;;;;;;;;;;18.25;51.40;96401.53;4249611;27;5683;-61
2023/08/29 08:19:17;;;;;;;;;;;;;;;18.30;51.30;96402.38;4259189;27;5632;-61
2023/08/29 08:21:22;;;;;;;;;;;;;;;18.35;51.39;96404.31;4242530;27;5683;-61
2023/08/29 08:23:25;;;;;;;;;;;;;;;18.42;51.26;96398.75;4262045;27;5587;-60
2023/08/29 08:25:28;;;;;;;;;;;;;;;18.46;50.85;96399.84;4253755;27;5599;-60
2023/08/29 08:27:31;;;;;;;;;;;;;;;18.47;50.64;96405.00;4264262;27;5754;-61
2023/08/29 08:29:34;;;;;;;;;;;;;;;18.49;50.80;96405.53;4257500;27;5093;-61
2023/08/29 08:31:37;;;;;;;;;;;;;;;18.51;50.93;96398.06;4259586;27;5694;-61
2023/08/29 08:33:40;;;;;;;;;;;;;;;18.49;49.96;96394.81;4263090;27;5727;-61
2023/08/29 08:35:44;;;;;;;;;;;;;;;18.51;50.21;96403.41;4258403;27;5086;-61
2023/08/29 08:38:00;;;;;;;;;;;;;;;18.49;49.86;96400.19;4260247;27;5772;-61
2023/08/29 08:40:09;;;;;;;;;;;;;;;18.49;50.16;96410.09;4257161;27;5624;-60
2023/08/29 08:42:12;;;;;;;;;;;;;;;18.49;49.89;96400.19;4249496;27;5641;-61
2023/08/29 08:44:16;;;;;;;;;;;;;;;18.46;49.84;96406.03;4252227;27;5611;-61
2023/08/29 08:46:20;;;;;;;;;;;;;;;18.48;49.87;96419.97;4246411;27;5736;-61
2023/08/29 08:48:22;;;;;;;;;;;;;;;18.37;49.75;96407.56;4259112;27;5752;-61
2023/08/29 08:50:26;;;;;;;;;;;;;;;18.41;50.09;96408.66;4249529;27;5087;-61
2023/08/29 08:52:33;;;;;;;;;;;;;;;18.48;49.57;96405.78;4253910;27;5708;-60
2023/08/29 08:54:37;;;;;;;;;;;;;;;18.49;49.68;96407.41;4246566;27;5637;-60
2023/08/29 08:56:41;;;;;;;;;;;;;;;18.52;49.94;96410.38;4233385;27;5676;-60
2023/08/29 08:58:44;;;;;;;;;;;;;;;18.61;49.93;96406.19;4244600;27;5607;-60
2023/08/29 09:00:49;;;;;;;;;;;;;;;18.68;49.61;96405.19;4252354;27;5633;-60
2023/08/29 09:02:53;;;;;;;;;;;;;;;18.72;49.54;96403.63;4256798;27;5697;-60
2023/08/29 09:04:57;;;;;;;;;;;;;;;18.75;49.40;96398.56;4258676;27;5699;-60
2023/08/29 09:06:59;;;;;;;;;;;;;;;18.77;48.43;96401.81;4250913;27;5774;-61
2023/08/29 09:09:19;;;;;;;;;;;;;;;18.70;48.38;96400.41;4259120;27;5728;-61
2023/08/29 09:11:24;;;;;;;;;;;;;;;18.74;49.02;96402.31;4253061;27;5591;-61
2023/08/29 09:13:27;;;;;;;;;;;;;;;18.82;48.41;96401.06;4247653;27;5583;-60
2023/08/29 09:15:32;;;;;;;;;;;;;;;18.79;48.27;96399.69;4250284;27;5604;-60
2023/08/29 09:17:35;;;;;;;;;;;;;;;18.81;48.75;96402.13;4255695;27;5632;-61
2023/08/29 09:19:38;;;;;;;;;;;;;;;18.87;48.56;96401.91;4258587;27;5628;-61
2023/08/29 09:21:43;;;;;;;;;;;;;;;18.90;48.68;96397.88;4251421;27;5892;-60
2023/08/29 09:23:46;;;;;;;;;;;;;;;18.95;48.86;96397.16;4253076;27;7684;-60
2023/08/29 09:25:56;;;;;;;;;;;;;;;19.01;48.64;96401.47;4251693;27;5628;-60
2023/08/29 09:28:00;;;;;;;;;;;;;;;19.02;48.97;96403.88;4251289;27;6686;-60
2023/08/29 09:30:10;;;;;;;;;;;;;;;19.02;48.80;96398.53;4251525;27;7277;-60
2023/08/29 09:32:14;;;;;;;;;;;;;;;19.09;48.98;96404.47;4253302;27;5720;-60
2023/08/29 09:34:28;;;;;;;;;;;;;;;19.16;49.06;96402.41;4261722;27;5758;-61
2023/08/29 09:36:31;;;;;;;;;;;;;;;19.20;49.19;96400.81;4256560;27;5748;-59
2023/08/29 09:38:36;;;;;;;;;;;;;;;19.24;49.42;96405.66;4253460;27;5925;-60
2023/08/29 09:40:45;;;;;;;;;;;;;;;19.31;49.51;96400.88;4256529;27;7732;-60
2023/08/29 09:42:55;;;;;;;;;;;;;;;19.39;49.56;96408.47;4254609;27;5636;-60
2023/08/29 09:44:59;;;;;;;;;;;;;;;19.44;49.55;96405.78;4253405;27;5595;-60
2023/08/29 09:47:02;;;;;;;;;;;;;;;19.41;49.57;96407.13;4261140;27;5698;-60
2023/08/29 09:49:05;;;;;;;;;;;;;;;19.46;49.73;96411.69;4270434;27;5690;-61
2023/08/29 09:51:09;;;;;;;;;;;;;;;19.48;49.54;96406.91;4270263;27;5643;-61
2023/08/29 09:53:15;;;;;;;;;;;;;;;19.53;49.67;96403.44;4262725;27;5709;-62
2023/08/29 09:55:20;;;;;;;;;;;;;;;19.54;49.69;96405.06;4260420;27;5733;-61
2023/08/29 09:57:24;;;;;;;;;;;;;;;19.56;49.41;96393.03;4253097;27;5620;-61
2023/08/29 09:59:29;;;;;;;;;;;;;;;19.61;49.39;96394.94;4257814;27;5680;-61
2023/08/29 10:01:34;;;;;;;;;;;;;;;19.64;49.35;96400.59;4259134;27;6116;-61
2023/08/29 10:03:39;;;;;;;;;;;;;;;19.68;49.09;96401.69;4257407;27;5624;-61
2023/08/29 10:05:45;;;;;;;;;;;;;;;19.69;49.15;96399.81;4258037;27;5611;-61
2023/08/29 10:07:51;;;;;;;;;;;;;;;19.70;48.89;96394.19;4260001;27;5717;-60
2023/08/29 10:09:55;;;;;;;;;;;;;;;19.73;48.78;96388.31;4260009;27;5610;-60
2023/08/29 10:11:59;;;;;;;;;;;;;;;19.78;48.63;96392.88;4258847;27;5697;-60
2023/08/29 10:14:04;;;;;;;;;;;;;;;19.80;48.60;96387.25;4251384;27;5874;-61
2023/08/29 10:16:08;;;;;;;;;;;;;;;19.83;48.43;96392.13;4253692;27;6512;-61
2023/08/29 10:18:14;;;;;;;;;;;;;;;19.85;48.28;96389.97;4252453;27;5851;-61
2023/08/29 10:20:18;;;;;;;;;;;;;;;19.86;48.22;96384.34;4259583;27;5656;-61
2023/08/29 10:22:23;;;;;;;;;;;;;;;19.90;48.26;96381.94;4253488;27;5644;-60
2023/08/29 10:24:27;;;;;;;;;;;;;;;19.94;48.31;96381.16;4255097;27;5821;-60
2023/08/29 10:26:31;;;;;;;;;;;;;;;19.98;48.07;96378.75;4257500;27;5728;-61
2023/08/29 10:28:35;;;;;;;;;;;;;;;19.95;47.71;96384.66;4262305;27;5690;-61
2023/08/29 10:30:43;;;;;;;;;;;;;;;19.93;47.53;96376.03;4269641;27;5702;-62
2023/08/29 10:32:47;;;;;;;;;;;;;;;19.94;45.97;96385.72;4260949;27;5618;-61
2023/08/29 10:34:52;;;;;;;;;;;;;;;19.94;46.69;96380.38;4261293;27;5697;-61
2023/08/29 10:36:56;;;;;;;;;;;;;;;19.98;46.96;96376.88;4256781;27;5756;-61
2023/08/29 10:39:00;;;;;;;;;;;;;;;19.98;46.61;96382.25;4260058;27;5769;-59
2023/08/29 10:41:06;;;;;;;;;;;;;;;20.01;45.73;96379.03;4259806;27;5701;-60
2023/08/29 10:43:17;;;;;;;;;;;;;;;20.03;46.54;96370.72;4253080;27;5710;-60
2023/08/29 10:45:21;;;;;;;;;;;;;;;20.12;46.62;96371.00;4261295;27;5735;-60
2023/08/29 10:47:26;;;;;;;;;;;;;;;20.16;46.42;96369.41;4248644;27;5649;-60
2023/08/29 10:49:41;;;;;;;;;;;;;;;20.20;46.33;96373.19;4255662;27;5604;-60
2023/08/29 10:52:10;;;;;;;;;;;;;;;20.21;45.94;96370.25;4258708;27;5263;-59
2023/08/29 10:54:13;;;;;;;;;;;;;;;20.21;45.54;96370.25;4260773;27;5615;-60
2023/08/29 10:56:18;;;;;;;;;;;;;;;20.21;45.76;96366.75;4251785;27;5847;-60
2023/08/29 10:58:38;;;;;;;;;;;;;;;20.18;45.52;96370.78;4257425;27;5707;-60
2023/08/29 11:00:54;;;;;;;;;;;;;;;20.21;45.70;96369.44;4259940;27;5625;-61
2023/08/29 11:02:58;;;;;;;;;;;;;;;20.22;45.70;96369.16;4253550;27;6328;-60
2023/08/29 11:05:15;;;;;;;;;;;;;;;20.25;45.59;96378.56;4236510;27;5637;-60
2023/08/29 11:07:26;;;;;;;;;;;;;;;20.27;45.35;96377.25;4246309;27;5632;-59
2023/08/29 11:09:29;;;;;;;;;;;;;;;20.29;45.70;96374.31;4260825;27;5693;-59
2023/08/29 11:11:31;;;;;;;;;;;;;;;20.31;45.05;96364.91;4260733;27;5696;-59
2023/08/29 11:13:34;;;;;;;;;;;;;;;20.34;45.31;96372.41;4260581;27;5701;-60
2023/08/29 11:16:05;;;;;;;;;;;;;;;20.40;45.20;96375.13;4260828;27;5703;-60
2023/08/29 11:18:28;;;;;;;;;;;;;;;20.42;44.94;96375.66;4224563;27;5670;-61
2023/08/29 11:20:32;;;;;;;;;;;;;;;20.40;44.60;96365.19;4254948;27;5644;-60
2023/08/29 11:22:37;;;;;;;;;;;;;;;20.36;44.84;96370.28;4256045;27;5826;-59
2023/08/29 11:24:41;;;;;;;;;;;;;;;20.33;43.89;96370.00;4252679;27;5796;-60
2023/08/29 11:26:46;;;;;;;;;;;;;;;20.30;44.33;96362.50;4257285;27;5697;-60
2023/08/29 11:28:49;;;;;;;;;;;;;;;20.32;43.91;96363.84;4259879;27;5607;-60
2023/08/29 11:30:52;;;;;;;;;;;;;;;20.34;44.06;96358.19;4259952;27;6296;-60
2023/08/29 11:32:55;;;;;;;;;;;;;;;20.37;44.17;96357.66;4261799;27;5711;-60
2023/08/29 11:34:58;;;;;;;;;;;;;;;20.43;43.92;96367.38;4258674;27;6419;-60
2023/08/29 11:37:02;;;;;;;;;;;;;;;20.48;43.87;96362.00;4252339;27;5629;-60
2023/08/29 11:39:07;;;;;;;;;;;;;;;20.51;43.85;96360.69;4259915;27;5610;-60
2023/08/29 11:41:12;;;;;;;;;;;;;;;20.49;43.24;96362.81;4237667;27;5662;-60
2023/08/29 11:43:36;;;;;;;;;;;;;;;20.51;43.20;96366.06;4256634;27;5782;-60
2023/08/29 11:46:01;;;;;;;;;;;;;;;20.49;41.96;96368.97;4249593;27;5716;-60
2023/08/29 11:48:05;;;;;;;;;;;;;;;20.44;41.99;96371.66;4251490;27;5692;-60
2023/08/29 11:50:11;;;;;;;;;;;;;;;20.41;41.87;96371.38;4252080;27;5602;-61
2023/08/29 11:52:14;;;;;;;;;;;;;;;20.44;42.13;96370.88;4258695;27;5736;-60
2023/08/29 11:54:42;;;;;;;;;;;;;;;20.47;42.09;96368.44;4250863;27;6296;-60
2023/08/29 11:56:44;;;;;;;;;;;;;;;20.48;42.21;96369.25;4256865;27;5591;-60
2023/08/29 11:58:49;;;;;;;;;;;;;;;20.48;41.22;96374.63;4253985;27;5645;-61
2023/08/29 12:00:53;;;;;;;;;;;;;;;20.43;41.19;96363.88;4263729;27;5803;-60
2023/08/29 12:02:57;;;;;;;;;;;;;;;20.45;41.57;96372.47;4251505;27;5684;-59
2023/08/29 12:05:00;;;;;;;;;;;;;;;20.51;41.66;96371.44;4258312;27;5603;-60
2023/08/29 12:07:08;;;;;;;;;;;;;;;20.54;41.63;96374.38;4251517;27;5627;-59
2023/08/29 12:09:22;;;;;;;;;;;;;;;20.56;41.30;96374.91;4245083;27;5688;-63
2023/08/29 12:11:41;;;;;;;;;;;;;;;20.56;41.26;96379.47;4251602;27;5708;-64
2023/08/29 12:13:59;;;;;;;;;;;;;;;20.59;41.75;96385.13;4250112;27;5711;-64
2023/08/29 12:16:03;;;;;;;;;;;;;;;20.64;41.95;96384.31;4261519;27;5700;-63
2023/08/29 12:18:05;;;;;;;;;;;;;;;20.63;40.90;96386.22;4255585;27;5766;-65
2023/08/29 12:20:27;;;;;;;;;;;;;;;20.64;39.64;96387.81;4250419;27;7772;-65
2023/08/29 12:22:31;;;;;;;;;;;;;;;20.62;40.18;96378.41;4258768;27;5633;-67
2023/08/29 12:24:34;;;;;;;;;;;;;;;20.64;40.74;96376.28;4250706;27;5719;-68
2023/08/29 12:26:39;;;;;;;;;;;;;;;20.69;41.04;96378.16;4248386;27;5921;-65
2023/08/29 12:28:42;;;;;;;;;;;;;;;20.72;40.51;96386.47;4245362;27;5765;-64
2023/08/29 12:30:45;;;;;;;;;;;;;;;20.72;39.83;96386.47;4247769;27;5701;-64
2023/08/29 12:32:48;;;;;;;;;;;;;;;20.70;40.25;96385.94;4250574;27;5856;-64
2023/08/29 12:34:52;;;;;;;;;;;;;;;20.70;39.45;96394.00;4254805;27;5738;-67
2023/08/29 12:36:55;;;;;;;;;;;;;;;20.67;39.50;96383.78;4260498;27;6784;-68
2023/08/29 12:38:57;;;;;;;;;;;;;;;20.68;40.10;96385.41;4258159;27;5595;-64
2023/08/29 12:41:01;;;;;;;;;;;;;;;20.72;39.68;96388.34;4259076;27;5719;-66
2023/08/29 12:43:06;;;;;;;;;;;;;;;20.74;40.11;96380.84;4255738;27;5613;-64
2023/08/29 12:45:09;;;;;;;;;;;;;;;20.78;40.22;96384.59;4242290;27;5617;-65
2023/08/29 12:47:12;;;;;;;;;;;;;;;20.73;39.40;96384.63;4257850;27;5619;-63
2023/08/29 12:49:15;;;;;;;;;;;;;;;20.63;39.09;96380.03;4250497;27;5609;-65
2023/08/29 12:51:18;;;;;;;;;;;;;;;20.60;39.43;96380.53;4248165;27;5625;-65
2023/08/29 12:53:22;;;;;;;;;;;;;;;20.63;40.03;96380.03;4249943;27;5629;-65
2023/08/29 12:55:25;;;;;;;;;;;;;;;20.67;39.90;96381.09;4248740;27;5645;-63
2023/08/29 12:57:28;;;;;;;;;;;;;;;20.71;40.01;96376.81;4249540;27;5745;-63
2023/08/29 12:59:32;;;;;;;;;;;;;;;20.67;40.02;96370.34;4256234;27;5243;-63
2023/08/29 13:01:35;;;;;;;;;;;;;;;20.65;40.11;96372.50;4254473;27;5636;-63
2023/08/29 13:03:38;;;;;;;;;;;;;;;20.64;39.90;96370.91;4249426;27;5724;-67
2023/08/29 13:05:41;;;;;;;;;;;;;;;20.65;40.45;96377.88;4244483;27;5640;-67
2023/08/29 13:07:45;;;;;;;;;;;;;;;20.68;40.32;96374.66;4245627;27;5405;-70
2023/08/29 13:09:48;;;;;;;;;;;;;;;20.69;40.24;96375.47;4250459;27;5651;-69
2023/08/29 13:11:51;;;;;;;;;;;;;;;20.69;40.15;96378.94;4251794;27;5602;-67
2023/08/29 13:13:54;;;;;;;;;;;;;;;20.66;40.40;96373.31;4269237;27;5682;-65
2023/08/29 13:15:58;;;;;;;;;;;;;;;20.65;40.75;96369.81;4255032;27;5629;-65
2023/08/29 13:18:02;;;;;;;;;;;;;;;20.66;40.67;96368.75;4252445;27;5856;-68
2023/08/29 13:20:08;;;;;;;;;;;;;;;20.72;40.74;96377.59;4253959;27;5624;-66
2023/08/29 13:22:11;;;;;;;;;;;;;;;20.73;40.67;96377.38;4254961;27;5619;-66
2023/08/29 13:24:14;;;;;;;;;;;;;;;20.75;40.66;96369.03;4248777;27;5668;-67
2023/08/29 13:26:17;;;;;;;;;;;;;;;20.75;40.35;96369.84;4246461;27;5664;-66
2023/08/29 13:28:20;;;;;;;;;;;;;;;20.78;40.72;96377.34;4260371;27;5629;-64
2023/08/29 13:30:23;;;;;;;;;;;;;;;20.80;40.66;96369.03;4248772;27;5708;-66
2023/08/29 13:32:27;;;;;;;;;;;;;;;20.82;40.60;96366.88;4260663;27;7002;-66
2023/08/29 13:34:31;;;;;;;;;;;;;;;20.82;40.39;96372.25;4245393;27;5801;-68
2023/08/29 13:36:34;;;;;;;;;;;;;;;20.74;40.41;96373.59;4246291;27;5645;-67
2023/08/29 13:38:37;;;;;;;;;;;;;;;20.71;40.55;96374.13;4248164;27;5786;-69
2023/08/29 13:40:40;;;;;;;;;;;;;;;20.69;40.42;96368.22;4252683;27;5637;-66
2023/08/29 13:42:49;;;;;;;;;;;;;;;20.64;40.90;96371.72;4253089;27;5632;-61
2023/08/29 13:44:55;;;;;;;;;;;;;;;20.68;40.91;96360.41;4248874;27;5715;-67
2023/08/29 13:46:58;;;;;;;;;;;;;;;20.72;40.97;96373.03;4252454;27;5633;-68
2023/08/29 13:49:03;;;;;;;;;;;;;;;20.74;40.82;96365.53;4260496;27;5709;-67
2023/08/29 13:51:06;;;;;;;;;;;;;;;20.73;40.88;96366.63;4251536;27;5769;-71
2023/08/29 13:53:11;;;;;;;;;;;;;;;20.73;40.86;96361.25;4240270;27;5878;-62
2023/08/29 13:55:14;;;;;;;;;;;;;;;20.70;40.93;96361.75;4248410;27;5726;-62
2023/08/29 13:57:17;;;;;;;;;;;;;;;20.66;41.09;96368.75;4252523;27;5673;-62
2023/08/29 13:59:20;;;;;;;;;;;;;;;20.62;40.87;96363.13;4244665;27;5813;-62
2023/08/29 14:01:23;;;;;;;;;;;;;;;20.56;40.62;96364.16;4238788;27;5637;-63
2023/08/29 14:03:27;;;;;;;;;;;;;;;20.51;41.02;96355.31;4243673;27;5968;-62
2023/08/29 14:05:42;;;;;;;;;;;;;;;20.50;41.07;96361.72;4238144;27;5771;-62
2023/08/29 14:07:45;;;;;;;;;;;;;;;20.46;40.82;96360.66;4240324;27;5900;-64
2023/08/29 14:09:48;;;;;;;;;;;;;;;20.44;41.24;96362.81;4236336;27;5975;-64
2023/08/29 14:11:51;;;;;;;;;;;;;;;20.41;43.29;96356.06;4240658;27;5633;-68
2023/08/29 14:13:54;;;;;;;;;;;;;;;20.38;43.01;96359.25;4236702;27;5633;-66
2023/08/29 14:16:00;;;;;;;;;;;;;;;20.39;43.87;96360.91;4241822;27;5667;-63
2023/08/29 14:18:03;;;;;;;;;;;;;;;20.35;44.98;96354.44;4248524;27;5815;-61
2023/08/29 14:20:07;;;;;;;;;;;;;;;20.27;45.60;96358.47;4225442;27;5694;-61
2023/08/29 14:22:12;;;;;;;;;;;;;;;20.22;44.97;96357.63;4238014;27;5722;-61
2023/08/29 14:24:15;;;;;;;;;;;;;;;20.23;45.39;96352.00;4230281;28;5658;-62
2023/08/29 14:26:18;;;;;;;;;;;;;;;20.22;45.46;96366.50;4232123;28;5697;-62
2023/08/29 14:28:21;;;;;;;;;;;;;;;20.18;46.12;96357.38;4230602;27;5769;-62
2023/08/29 14:30:24;;;;;;;;;;;;;;;20.13;46.40;96354.66;4240361;27;5736;-61
2023/08/29 14:32:27;;;;;;;;;;;;;;;20.09;46.63;96358.94;4226636;27;5994;-61
2023/08/29 14:34:30;;;;;;;;;;;;;;;20.01;47.08;96364.81;4225736;27;6363;-64
2023/08/29 14:36:33;;;;;;;;;;;;;;;19.96;47.12;96365.59;4235906;27;5620;-65
2023/08/29 14:38:37;;;;;;;;;;;;;;;19.93;47.29;96366.16;4228202;27;5656;-60
2023/08/29 14:40:40;;;;;;;;;;;;;;;19.84;47.69;96369.59;4229337;27;5745;-65
2023/08/29 14:42:43;;;;;;;;;;;;;;;19.79;47.95;96359.63;4224965;27;5651;-60
2023/08/29 14:44:46;;;;;;;;;;;;;;;19.80;47.82;96358.56;4242430;27;5720;-65
2023/08/29 14:46:49;;;;;;;;;;;;;;;19.84;47.83;96364.22;4233832;27;5668;-63
2023/08/29 14:48:52;;;;;;;;;;;;;;;19.84;48.25;96370.38;4231627;27;5752;-65
2023/08/29 14:50:54;;;;;;;;;;;;;;;19.83;48.33;96365.28;4217074;27;5678;-62
2023/08/29 14:52:57;;;;;;;;;;;;;;;19.82;48.61;96360.97;4227253;28;5936;-64
2023/08/29 14:55:02;;;;;;;;;;;;;;;19.84;48.49;96361.53;4233469;27;5720;-65
2023/08/29 14:57:05;;;;;;;;;;;;;;;19.87;48.43;96361.00;4232454;27;5679;-63
2023/08/29 14:59:10;;;;;;;;;;;;;;;19.87;48.49;96356.44;4226483;27;5762;-65
2023/08/29 15:01:13;;;;;;;;;;;;;;;19.90;48.55;96357.78;4227773;27;5744;-65
2023/08/29 15:03:16;;;;;;;;;;;;;;;19.96;48.09;96357.56;4217921;27;5211;-62
2023/08/29 15:05:19;;;;;;;;;;;;;;;20.02;48.28;96353.81;4223580;28;5727;-67
2023/08/29 15:07:23;;;;;;;;;;;;;;;20.09;47.97;96350.88;4222081;27;5805;-66
2023/08/29 15:09:26;;;;;;;;;;;;;;;20.13;48.20;96354.66;4228451;27;5756;-69
2023/08/29 15:11:31;;;;;;;;;;;;;;;20.11;48.14;96354.13;4225755;27;5727;-64
2023/08/29 15:13:34;;;;;;;;;;;;;;;20.09;48.17;96353.56;4223357;27;5644;-62
2023/08/29 15:15:37;;;;;;;;;;;;;;;20.12;48.30;96353.03;4239907;27;5730;-62
2023/08/29 15:17:40;;;;;;;;;;;;;;;20.08;48.38;96341.22;4223082;27;5740;-62
2023/08/29 15:19:43;;;;;;;;;;;;;;;20.02;48.27;96342.28;4229403;27;5748;-62
2023/08/29 15:21:46;;;;;;;;;;;;;;;20.01;48.04;96343.34;4224362;27;5675;-62
2023/08/29 15:23:49;;;;;;;;;;;;;;;20.00;48.24;96341.72;4223597;27;5788;-63
2023/08/29 15:25:52;;;;;;;;;;;;;;;20.00;48.43;96349.78;4225314;27;5880;-64
2023/08/29 15:27:56;;;;;;;;;;;;;;;20.04;48.42;96351.66;4225000;28;5734;-61
2023/08/29 15:29:59;;;;;;;;;;;;;;;20.03;48.38;96344.69;4224969;27;5744;-63
2023/08/29 15:32:02;;;;;;;;;;;;;;;20.00;48.33;96349.78;4238817;27;5685;-62
2023/08/29 15:34:05;;;;;;;;;;;;;;;19.99;48.45;96345.50;4219948;27;5819;-64
2023/08/29 15:36:07;;;;;;;;;;;;;;;20.00;48.35;96355.16;4226601;27;6864;-64
2023/08/29 15:38:10;;;;;;;;;;;;;;;19.99;48.40;96350.84;4226513;28;5756;-63
2023/08/29 15:40:13;;;;;;;;;;;;;;;19.98;48.61;96358.09;4222601;27;5738;-63
2023/08/29 15:42:16;;;;;;;;;;;;;;;20.01;48.51;96352.19;4233320;27;5659;-63
2023/08/29 15:44:20;;;;;;;;;;;;;;;20.04;48.36;96351.66;4224519;27;5632;-66